sensor_id;sensor_type;location;lat;lon;timestamp;P1;durP1;ratioP1;P2;durP2;ratioP2
29478;SDS011;16437;41.836;23.480;2022-09-09T00:00:14;5.00;;;2.85;;
29478;SDS011;16437;41.836;23.480;2022-09-09T00:05:44;6.75;;;2.95;;
29478;SDS011;16437;41.836;23.480;2022-09-09T00:11:11;4.78;;;3.25;;
29478;SDS011;16437;41.836;23.480;2022-09-09T00:16:40;4.47;;;3.33;;
29478;SDS011;16437;41.836;23.480;2022-09-09T00:22:21;3.62;;;2.80;;
29478;SDS011;16437;41.836;23.480;2022-09-09T00:27:45;5.20;;;3.35;;
29478;SDS011;16437;41.836;23.480;2022-09-09T00:33:17;7.17;;;3.62;;
29478;SDS011;16437;41.836;23.480;2022-09-09T00:38:49;4.20;;;3.50;;
29478;SDS011;16437;41.836;23.480;2022-09-09T00:44:31;5.08;;;3.00;;
29478;SDS011;16437;41.836;23.480;2022-09-09T00:50:08;5.10;;;3.22;;
29478;SDS011;16437;41.836;23.480;2022-09-09T00:55:30;4.75;;;3.20;;
29478;SDS011;16437;41.836;23.480;2022-09-09T01:01:08;4.92;;;3.10;;
29478;SDS011;16437;41.836;23.480;2022-09-09T01:06:37;4.57;;;3.10;;
29478;SDS011;16437;41.836;23.480;2022-09-09T01:12:24;8.48;;;3.87;;
29478;SDS011;16437;41.836;23.480;2022-09-09T01:23:34;5.85;;;3.30;;
29478;SDS011;16437;41.836;23.480;2022-09-09T01:29:02;5.92;;;3.02;;
29478;SDS011;16437;41.836;23.480;2022-09-09T01:40:10;5.87;;;3.00;;
29478;SDS011;16437;41.836;23.480;2022-09-09T01:45:38;6.08;;;2.95;;
29478;SDS011;16437;41.836;23.480;2022-09-09T01:51:07;4.72;;;2.87;;
29478;SDS011;16437;41.836;23.480;2022-09-09T01:56:40;3.92;;;2.72;;
29478;SDS011;16437;41.836;23.480;2022-09-09T02:02:23;3.90;;;2.90;;
29478;SDS011;16437;41.836;23.480;2022-09-09T02:08:03;4.33;;;3.33;;
29478;SDS011;16437;41.836;23.480;2022-09-09T02:13:33;4.62;;;2.80;;
29478;SDS011;16437;41.836;23.480;2022-09-09T02:24:39;4.97;;;3.20;;
29478;SDS011;16437;41.836;23.480;2022-09-09T02:30:06;3.62;;;2.60;;
29478;SDS011;16437;41.836;23.480;2022-09-09T02:35:34;4.30;;;3.20;;
29478;SDS011;16437;41.836;23.480;2022-09-09T02:41:02;3.50;;;2.80;;
29478;SDS011;16437;41.836;23.480;2022-09-09T02:46:36;4.08;;;2.83;;
29478;SDS011;16437;41.836;23.480;2022-09-09T02:52:05;4.20;;;2.95;;
29478;SDS011;16437;41.836;23.480;2022-09-09T02:57:43;4.17;;;3.00;;
29478;SDS011;16437;41.836;23.480;2022-09-09T03:03:12;6.72;;;3.33;;
29478;SDS011;16437;41.836;23.480;2022-09-09T03:08:41;4.30;;;3.10;;
29478;SDS011;16437;41.836;23.480;2022-09-09T03:14:07;5.35;;;3.33;;
29478;SDS011;16437;41.836;23.480;2022-09-09T03:19:35;5.03;;;3.45;;
29478;SDS011;16437;41.836;23.480;2022-09-09T03:25:02;4.55;;;2.72;;
29478;SDS011;16437;41.836;23.480;2022-09-09T03:30:28;5.35;;;3.27;;
29478;SDS011;16437;41.836;23.480;2022-09-09T03:35:55;4.22;;;3.20;;
29478;SDS011;16437;41.836;23.480;2022-09-09T03:41:22;4.55;;;3.27;;
29478;SDS011;16437;41.836;23.480;2022-09-09T03:46:49;3.60;;;3.12;;
29478;SDS011;16437;41.836;23.480;2022-09-09T03:52:15;3.77;;;2.70;;
29478;SDS011;16437;41.836;23.480;2022-09-09T03:57:43;5.20;;;3.27;;
29478;SDS011;16437;41.836;23.480;2022-09-09T04:03:10;3.55;;;2.98;;
29478;SDS011;16437;41.836;23.480;2022-09-09T04:08:37;4.37;;;3.45;;
29478;SDS011;16437;41.836;23.480;2022-09-09T04:14:04;3.30;;;2.90;;
29478;SDS011;16437;41.836;23.480;2022-09-09T04:19:31;5.15;;;3.20;;
29478;SDS011;16437;41.836;23.480;2022-09-09T04:24:58;3.92;;;3.27;;
29478;SDS011;16437;41.836;23.480;2022-09-09T04:30:25;4.20;;;2.92;;
29478;SDS011;16437;41.836;23.480;2022-09-09T04:35:52;5.47;;;3.20;;
29478;SDS011;16437;41.836;23.480;2022-09-09T04:41:19;4.20;;;3.37;;
29478;SDS011;16437;41.836;23.480;2022-09-09T04:46:45;3.77;;;3.35;;
29478;SDS011;16437;41.836;23.480;2022-09-09T04:52:11;4.40;;;3.65;;
29478;SDS011;16437;41.836;23.480;2022-09-09T04:57:37;4.20;;;3.80;;
29478;SDS011;16437;41.836;23.480;2022-09-09T05:03:05;5.55;;;3.80;;
29478;SDS011;16437;41.836;23.480;2022-09-09T05:08:33;4.05;;;3.65;;
29478;SDS011;16437;41.836;23.480;2022-09-09T05:14:01;4.25;;;3.85;;
29478;SDS011;16437;41.836;23.480;2022-09-09T05:19:27;4.20;;;3.50;;
29478;SDS011;16437;41.836;23.480;2022-09-09T05:24:55;6.30;;;4.58;;
29478;SDS011;16437;41.836;23.480;2022-09-09T05:30:23;6.92;;;4.35;;
29478;SDS011;16437;41.836;23.480;2022-09-09T05:36:02;4.67;;;4.08;;
29478;SDS011;16437;41.836;23.480;2022-09-09T05:41:26;5.35;;;4.08;;
29478;SDS011;16437;41.836;23.480;2022-09-09T05:46:53;6.42;;;4.17;;
29478;SDS011;16437;41.836;23.480;2022-09-09T05:52:19;5.60;;;4.62;;
29478;SDS011;16437;41.836;23.480;2022-09-09T05:57:48;6.45;;;4.72;;
29478;SDS011;16437;41.836;23.480;2022-09-09T06:03:14;6.12;;;4.37;;
29478;SDS011;16437;41.836;23.480;2022-09-09T06:08:41;7.25;;;4.85;;
29478;SDS011;16437;41.836;23.480;2022-09-09T06:14:10;7.50;;;5.20;;
29478;SDS011;16437;41.836;23.480;2022-09-09T06:19:36;6.67;;;4.85;;
29478;SDS011;16437;41.836;23.480;2022-09-09T06:25:03;5.87;;;5.15;;
29478;SDS011;16437;41.836;23.480;2022-09-09T06:30:30;6.58;;;5.85;;
29478;SDS011;16437;41.836;23.480;2022-09-09T06:35:56;6.92;;;5.70;;
29478;SDS011;16437;41.836;23.480;2022-09-09T06:41:24;6.28;;;5.37;;
29478;SDS011;16437;41.836;23.480;2022-09-09T06:46:53;6.87;;;5.37;;
29478;SDS011;16437;41.836;23.480;2022-09-09T06:52:19;8.05;;;5.37;;
29478;SDS011;16437;41.836;23.480;2022-09-09T06:57:46;5.92;;;5.30;;
29478;SDS011;16437;41.836;23.480;2022-09-09T07:03:13;6.75;;;5.50;;
29478;SDS011;16437;41.836;23.480;2022-09-09T07:08:39;8.45;;;5.85;;
29478;SDS011;16437;41.836;23.480;2022-09-09T07:14:06;7.33;;;5.30;;
29478;SDS011;16437;41.836;23.480;2022-09-09T07:19:33;6.72;;;5.17;;
29478;SDS011;16437;41.836;23.480;2022-09-09T07:24:59;7.05;;;5.42;;
29478;SDS011;16437;41.836;23.480;2022-09-09T07:30:27;6.80;;;5.50;;
29478;SDS011;16437;41.836;23.480;2022-09-09T07:35:53;6.37;;;5.10;;
29478;SDS011;16437;41.836;23.480;2022-09-09T07:41:22;8.60;;;5.75;;
29478;SDS011;16437;41.836;23.480;2022-09-09T07:46:55;5.50;;;5.00;;
29478;SDS011;16437;41.836;23.480;2022-09-09T07:52:22;5.95;;;5.20;;
29478;SDS011;16437;41.836;23.480;2022-09-09T07:57:48;6.95;;;5.33;;
29478;SDS011;16437;41.836;23.480;2022-09-09T08:03:15;6.20;;;5.55;;
29478;SDS011;16437;41.836;23.480;2022-09-09T08:08:42;6.85;;;5.40;;
29478;SDS011;16437;41.836;23.480;2022-09-09T08:14:09;6.00;;;5.40;;
29478;SDS011;16437;41.836;23.480;2022-09-09T08:19:36;6.47;;;5.50;;
29478;SDS011;16437;41.836;23.480;2022-09-09T08:25:03;5.85;;;5.10;;
29478;SDS011;16437;41.836;23.480;2022-09-09T08:30:31;7.22;;;5.20;;
29478;SDS011;16437;41.836;23.480;2022-09-09T08:35:57;6.42;;;5.10;;
29478;SDS011;16437;41.836;23.480;2022-09-09T08:41:31;6.40;;;5.37;;
29478;SDS011;16437;41.836;23.480;2022-09-09T08:52:54;5.60;;;5.03;;
29478;SDS011;16437;41.836;23.480;2022-09-09T08:58:40;5.33;;;4.70;;
29478;SDS011;16437;41.836;23.480;2022-09-09T09:10:09;5.60;;;5.00;;
29478;SDS011;16437;41.836;23.480;2022-09-09T09:15:49;5.65;;;4.83;;
29478;SDS011;16437;41.836;23.480;2022-09-09T09:27:07;6.33;;;5.03;;
29478;SDS011;16437;41.836;23.480;2022-09-09T09:32:38;5.80;;;5.20;;
29478;SDS011;16437;41.836;23.480;2022-09-09T09:38:50;5.28;;;4.58;;
29478;SDS011;16437;41.836;23.480;2022-09-09T09:43:52;5.53;;;5.00;;
29478;SDS011;16437;41.836;23.480;2022-09-09T09:49:16;6.08;;;5.30;;
29478;SDS011;16437;41.836;23.480;2022-09-09T09:54:43;6.33;;;4.95;;
29478;SDS011;16437;41.836;23.480;2022-09-09T10:05:45;7.15;;;5.87;;
29478;SDS011;16437;41.836;23.480;2022-09-09T10:28:05;5.70;;;5.00;;
29478;SDS011;16437;41.836;23.480;2022-09-09T10:33:39;5.75;;;5.08;;
29478;SDS011;16437;41.836;23.480;2022-09-09T10:39:22;8.18;;;5.40;;
29478;SDS011;16437;41.836;23.480;2022-09-09T10:56:36;6.92;;;5.50;;
29478;SDS011;16437;41.836;23.480;2022-09-09T11:07:48;7.67;;;5.22;;
29478;SDS011;16437;41.836;23.480;2022-09-09T11:14:12;5.67;;;5.08;;
29478;SDS011;16437;41.836;23.480;2022-09-09T11:19:13;9.15;;;5.55;;
29478;SDS011;16437;41.836;23.480;2022-09-09T11:30:27;8.35;;;5.15;;
29478;SDS011;16437;41.836;23.480;2022-09-09T11:36:00;7.50;;;4.97;;
29478;SDS011;16437;41.836;23.480;2022-09-09T11:41:38;7.30;;;5.42;;
29478;SDS011;16437;41.836;23.480;2022-09-09T11:47:23;7.22;;;5.17;;
29478;SDS011;16437;41.836;23.480;2022-09-09T11:53:03;6.05;;;4.90;;
29478;SDS011;16437;41.836;23.480;2022-09-09T11:58:38;8.75;;;5.28;;
29478;SDS011;16437;41.836;23.480;2022-09-09T12:04:48;8.05;;;5.08;;
29478;SDS011;16437;41.836;23.480;2022-09-09T12:09:57;7.62;;;5.17;;
29478;SDS011;16437;41.836;23.480;2022-09-09T12:15:28;6.35;;;4.85;;
29478;SDS011;16437;41.836;23.480;2022-09-09T12:32:07;7.53;;;5.05;;
29478;SDS011;16437;41.836;23.480;2022-09-09T12:37:40;5.20;;;4.67;;
29478;SDS011;16437;41.836;23.480;2022-09-09T12:43:19;7.58;;;5.00;;
29478;SDS011;16437;41.836;23.480;2022-09-09T12:48:47;8.63;;;4.80;;
29478;SDS011;16437;41.836;23.480;2022-09-09T12:54:13;8.25;;;4.92;;
29478;SDS011;16437;41.836;23.480;2022-09-09T12:59:41;7.45;;;4.70;;
29478;SDS011;16437;41.836;23.480;2022-09-09T13:05:13;7.60;;;4.30;;
29478;SDS011;16437;41.836;23.480;2022-09-09T13:10:49;7.55;;;4.45;;
29478;SDS011;16437;41.836;23.480;2022-09-09T13:21:56;8.40;;;4.70;;
29478;SDS011;16437;41.836;23.480;2022-09-09T13:27:28;4.87;;;4.08;;
29478;SDS011;16437;41.836;23.480;2022-09-09T13:33:00;6.37;;;4.28;;
29478;SDS011;16437;41.836;23.480;2022-09-09T13:38:28;6.45;;;4.50;;
29478;SDS011;16437;41.836;23.480;2022-09-09T13:43:56;5.10;;;4.25;;
29478;SDS011;16437;41.836;23.480;2022-09-09T13:49:23;8.20;;;4.47;;
29478;SDS011;16437;41.836;23.480;2022-09-09T13:54:53;7.10;;;4.33;;
29478;SDS011;16437;41.836;23.480;2022-09-09T14:00:20;8.13;;;4.75;;
29478;SDS011;16437;41.836;23.480;2022-09-09T14:05:48;6.50;;;4.35;;
29478;SDS011;16437;41.836;23.480;2022-09-09T14:11:15;8.10;;;4.60;;
29478;SDS011;16437;41.836;23.480;2022-09-09T14:16:44;6.95;;;4.42;;
29478;SDS011;16437;41.836;23.480;2022-09-09T14:22:10;8.35;;;4.42;;
29478;SDS011;16437;41.836;23.480;2022-09-09T14:27:36;7.80;;;5.92;;
29478;SDS011;16437;41.836;23.480;2022-09-09T14:33:04;9.05;;;5.20;;
29478;SDS011;16437;41.836;23.480;2022-09-09T14:38:34;7.45;;;5.03;;
29478;SDS011;16437;41.836;23.480;2022-09-09T14:44:06;8.43;;;5.25;;
29478;SDS011;16437;41.836;23.480;2022-09-09T14:49:33;9.00;;;4.58;;
29478;SDS011;16437;41.836;23.480;2022-09-09T14:55:00;7.42;;;4.50;;
29478;SDS011;16437;41.836;23.480;2022-09-09T15:00:26;8.65;;;4.53;;
29478;SDS011;16437;41.836;23.480;2022-09-09T15:05:53;9.65;;;4.58;;
29478;SDS011;16437;41.836;23.480;2022-09-09T15:11:20;5.90;;;4.70;;
29478;SDS011;16437;41.836;23.480;2022-09-09T15:16:48;8.03;;;4.67;;
29478;SDS011;16437;41.836;23.480;2022-09-09T15:22:14;5.37;;;4.42;;
29478;SDS011;16437;41.836;23.480;2022-09-09T15:27:41;5.15;;;4.22;;
29478;SDS011;16437;41.836;23.480;2022-09-09T15:33:08;7.30;;;4.25;;
29478;SDS011;16437;41.836;23.480;2022-09-09T15:38:34;6.15;;;4.37;;
29478;SDS011;16437;41.836;23.480;2022-09-09T15:44:01;5.95;;;4.33;;
29478;SDS011;16437;41.836;23.480;2022-09-09T15:49:27;4.97;;;4.22;;
29478;SDS011;16437;41.836;23.480;2022-09-09T15:54:54;8.53;;;4.78;;
29478;SDS011;16437;41.836;23.480;2022-09-09T16:00:20;6.47;;;4.47;;
29478;SDS011;16437;41.836;23.480;2022-09-09T16:05:50;6.65;;;4.45;;
29478;SDS011;16437;41.836;23.480;2022-09-09T16:11:18;7.22;;;4.30;;
29478;SDS011;16437;41.836;23.480;2022-09-09T16:16:46;7.50;;;4.72;;
29478;SDS011;16437;41.836;23.480;2022-09-09T16:22:13;7.40;;;4.83;;
29478;SDS011;16437;41.836;23.480;2022-09-09T16:27:40;6.25;;;4.40;;
29478;SDS011;16437;41.836;23.480;2022-09-09T16:33:08;7.70;;;4.33;;
29478;SDS011;16437;41.836;23.480;2022-09-09T16:38:34;5.75;;;4.30;;
29478;SDS011;16437;41.836;23.480;2022-09-09T16:44:03;5.10;;;3.98;;
29478;SDS011;16437;41.836;23.480;2022-09-09T16:49:31;7.40;;;4.85;;
29478;SDS011;16437;41.836;23.480;2022-09-09T16:54:58;5.47;;;4.28;;
29478;SDS011;16437;41.836;23.480;2022-09-09T17:00:24;5.05;;;4.53;;
29478;SDS011;16437;41.836;23.480;2022-09-09T17:05:51;7.87;;;4.70;;
29478;SDS011;16437;41.836;23.480;2022-09-09T17:11:18;6.03;;;4.60;;
29478;SDS011;16437;41.836;23.480;2022-09-09T17:16:45;4.60;;;4.10;;
29478;SDS011;16437;41.836;23.480;2022-09-09T17:22:12;9.65;;;4.20;;
29478;SDS011;16437;41.836;23.480;2022-09-09T17:27:39;7.85;;;4.30;;
29478;SDS011;16437;41.836;23.480;2022-09-09T17:33:05;6.05;;;4.33;;
29478;SDS011;16437;41.836;23.480;2022-09-09T17:38:31;7.65;;;4.42;;
29478;SDS011;16437;41.836;23.480;2022-09-09T17:43:58;8.83;;;4.72;;
29478;SDS011;16437;41.836;23.480;2022-09-09T17:49:25;6.65;;;3.95;;
29478;SDS011;16437;41.836;23.480;2022-09-09T17:54:52;6.80;;;4.50;;
29478;SDS011;16437;41.836;23.480;2022-09-09T18:00:20;6.25;;;4.50;;
29478;SDS011;16437;41.836;23.480;2022-09-09T18:05:46;6.00;;;4.10;;
29478;SDS011;16437;41.836;23.480;2022-09-09T18:11:12;6.67;;;4.45;;
29478;SDS011;16437;41.836;23.480;2022-09-09T18:16:39;8.58;;;4.28;;
29478;SDS011;16437;41.836;23.480;2022-09-09T18:22:05;6.25;;;4.55;;
29478;SDS011;16437;41.836;23.480;2022-09-09T18:27:32;9.78;;;4.22;;
29478;SDS011;16437;41.836;23.480;2022-09-09T18:32:58;9.30;;;4.47;;
29478;SDS011;16437;41.836;23.480;2022-09-09T18:38:24;8.88;;;4.65;;
29478;SDS011;16437;41.836;23.480;2022-09-09T18:43:52;6.67;;;4.47;;
29478;SDS011;16437;41.836;23.480;2022-09-09T18:49:20;10.15;;;4.53;;
29478;SDS011;16437;41.836;23.480;2022-09-09T18:54:48;7.92;;;4.30;;
29478;SDS011;16437;41.836;23.480;2022-09-09T19:00:14;7.08;;;4.50;;
29478;SDS011;16437;41.836;23.480;2022-09-09T19:05:41;5.25;;;4.50;;
29478;SDS011;16437;41.836;23.480;2022-09-09T19:11:08;6.42;;;4.37;;
29478;SDS011;16437;41.836;23.480;2022-09-09T19:16:37;9.33;;;4.50;;
29478;SDS011;16437;41.836;23.480;2022-09-09T19:22:04;6.08;;;4.22;;
29478;SDS011;16437;41.836;23.480;2022-09-09T19:27:32;6.40;;;4.30;;
29478;SDS011;16437;41.836;23.480;2022-09-09T19:32:58;7.37;;;4.20;;
29478;SDS011;16437;41.836;23.480;2022-09-09T19:38:25;8.80;;;4.70;;
29478;SDS011;16437;41.836;23.480;2022-09-09T19:43:52;6.42;;;4.10;;
29478;SDS011;16437;41.836;23.480;2022-09-09T19:49:25;6.90;;;4.65;;
29478;SDS011;16437;41.836;23.480;2022-09-09T19:54:52;19.23;;;11.40;;
29478;SDS011;16437;41.836;23.480;2022-09-09T20:00:19;8.65;;;5.58;;
29478;SDS011;16437;41.836;23.480;2022-09-09T20:05:46;13.35;;;6.00;;
29478;SDS011;16437;41.836;23.480;2022-09-09T20:11:14;9.10;;;5.65;;
29478;SDS011;16437;41.836;23.480;2022-09-09T20:16:41;9.18;;;5.90;;
29478;SDS011;16437;41.836;23.480;2022-09-09T20:22:09;7.20;;;5.33;;
29478;SDS011;16437;41.836;23.480;2022-09-09T20:27:35;10.18;;;5.58;;
29478;SDS011;16437;41.836;23.480;2022-09-09T20:33:02;9.43;;;5.25;;
29478;SDS011;16437;41.836;23.480;2022-09-09T20:38:30;9.63;;;5.65;;
29478;SDS011;16437;41.836;23.480;2022-09-09T20:44:04;10.35;;;5.80;;
29478;SDS011;16437;41.836;23.480;2022-09-09T20:49:28;8.73;;;5.58;;
29478;SDS011;16437;41.836;23.480;2022-09-09T20:54:54;12.25;;;5.87;;
29478;SDS011;16437;41.836;23.480;2022-09-09T21:00:20;9.18;;;5.67;;
29478;SDS011;16437;41.836;23.480;2022-09-09T21:05:46;9.70;;;5.55;;
29478;SDS011;16437;41.836;23.480;2022-09-09T21:11:14;11.15;;;5.28;;
29478;SDS011;16437;41.836;23.480;2022-09-09T21:16:41;7.67;;;5.25;;
29478;SDS011;16437;41.836;23.480;2022-09-09T21:22:08;7.37;;;5.28;;
29478;SDS011;16437;41.836;23.480;2022-09-09T21:27:34;8.13;;;5.28;;
29478;SDS011;16437;41.836;23.480;2022-09-09T21:33:01;8.60;;;5.47;;
29478;SDS011;16437;41.836;23.480;2022-09-09T21:38:29;10.40;;;5.45;;
29478;SDS011;16437;41.836;23.480;2022-09-09T21:43:56;10.10;;;5.12;;
29478;SDS011;16437;41.836;23.480;2022-09-09T21:49:23;7.87;;;5.28;;
29478;SDS011;16437;41.836;23.480;2022-09-09T21:54:49;8.18;;;5.10;;
29478;SDS011;16437;41.836;23.480;2022-09-09T22:00:16;7.40;;;4.75;;
29478;SDS011;16437;41.836;23.480;2022-09-09T22:05:43;10.00;;;5.35;;
29478;SDS011;16437;41.836;23.480;2022-09-09T22:11:11;8.25;;;5.10;;
29478;SDS011;16437;41.836;23.480;2022-09-09T22:16:39;7.78;;;4.97;;
29478;SDS011;16437;41.836;23.480;2022-09-09T22:22:06;8.10;;;4.83;;
29478;SDS011;16437;41.836;23.480;2022-09-09T22:27:32;7.22;;;4.78;;
29478;SDS011;16437;41.836;23.480;2022-09-09T22:32:59;8.88;;;4.83;;
29478;SDS011;16437;41.836;23.480;2022-09-09T22:38:26;8.15;;;4.90;;
29478;SDS011;16437;41.836;23.480;2022-09-09T22:43:53;8.80;;;4.78;;
29478;SDS011;16437;41.836;23.480;2022-09-09T22:49:20;8.00;;;5.10;;
29478;SDS011;16437;41.836;23.480;2022-09-09T22:54:47;8.98;;;4.90;;
29478;SDS011;16437;41.836;23.480;2022-09-09T23:00:15;6.28;;;4.53;;
29478;SDS011;16437;41.836;23.480;2022-09-09T23:05:42;8.33;;;5.22;;
29478;SDS011;16437;41.836;23.480;2022-09-09T23:11:11;6.70;;;4.40;;
29478;SDS011;16437;41.836;23.480;2022-09-09T23:16:39;6.80;;;4.47;;
29478;SDS011;16437;41.836;23.480;2022-09-09T23:22:07;6.22;;;4.35;;
29478;SDS011;16437;41.836;23.480;2022-09-09T23:27:35;6.75;;;4.85;;
29478;SDS011;16437;41.836;23.480;2022-09-09T23:33:02;6.90;;;4.70;;
29478;SDS011;16437;41.836;23.480;2022-09-09T23:38:28;7.05;;;4.58;;
29478;SDS011;16437;41.836;23.480;2022-09-09T23:43:54;7.20;;;4.53;;
29478;SDS011;16437;41.836;23.480;2022-09-09T23:49:22;8.00;;;4.65;;
29478;SDS011;16437;41.836;23.480;2022-09-09T23:54:48;8.60;;;5.20;;
